createdAt,value
2022-10-01T00:02:07.352Z,69707.59
2022-10-01T00:04:37.101Z,69726.00
2022-10-01T00:07:09.377Z,69717.00
2022-10-01T00:09:36.890Z,69725.53
2022-10-01T00:12:04.705Z,69714.69
2022-10-01T00:14:32.301Z,69721.16
2022-10-01T00:16:59.856Z,69693.72
2022-10-01T00:19:27.510Z,69707.19
2022-10-01T00:21:54.908Z,69722.94
2022-10-01T00:24:22.383Z,69705.44
2022-10-01T00:26:49.768Z,69674.16
2022-10-01T00:29:17.267Z,69672.97
2022-10-01T00:31:44.803Z,69660.69
2022-10-01T00:34:15.194Z,69672.69
2022-10-01T00:36:42.685Z,69684.38
2022-10-01T00:39:11.955Z,69696.66
2022-10-01T00:41:39.895Z,69687.31
2022-10-01T00:44:29.099Z,69688.50
2022-10-01T00:47:01.822Z,69690.53
2022-10-01T00:49:31.898Z,69701.03
2022-10-01T00:52:04.241Z,69668.03
2022-10-01T00:55:07.592Z,69699.63
2022-10-01T00:57:35.539Z,69679.47
2022-10-01T01:00:07.036Z,69647.00
2022-10-01T01:02:34.557Z,69706.94
2022-10-01T01:05:02.693Z,69665.72
2022-10-01T01:07:33.690Z,69645.56
2022-10-01T01:10:02.665Z,69662.22
2022-10-01T01:12:33.294Z,69662.78
2022-10-01T01:15:36.915Z,69669.22
2022-10-01T01:18:09.397Z,69685.00
2022-10-01T01:20:48.506Z,69681.22
2022-10-01T01:23:18.899Z,69666.31
2022-10-01T01:26:02.921Z,69692.03
2022-10-01T01:28:39.617Z,69666.28
2022-10-01T01:31:14.528Z,69685.00
2022-10-01T01:33:46.051Z,69675.09
2022-10-01T01:36:18.654Z,69656.94
2022-10-01T01:38:51.975Z,69675.69
2022-10-01T01:41:25.506Z,69692.63
2022-10-01T01:43:56.641Z,69661.66
2022-10-01T01:46:31.599Z,69676.88
2022-10-01T01:49:01.130Z,69671.03
2022-10-01T01:51:40.587Z,69647.69
2022-10-01T01:54:08.558Z,69628.13
2022-10-01T01:56:36.588Z,69631.59
2022-10-01T01:59:05.189Z,69639.81
2022-10-01T02:01:32.786Z,69631.94
2022-10-01T02:04:03.558Z,69633.41
2022-10-01T02:07:08.527Z,69659.44
2022-10-01T02:09:44.856Z,69634.34
2022-10-01T02:12:22.105Z,69624.72
2022-10-01T02:15:17.192Z,69605.72
2022-10-01T02:18:07.898Z,69628.50
2022-10-01T02:20:50.403Z,69618.88
2022-10-01T02:23:29.027Z,69627.34
2022-10-01T02:26:02.485Z,69664.44
2022-10-01T02:28:32.822Z,69662.97
2022-10-01T02:31:02.435Z,69608.97
2022-10-01T02:33:36.382Z,69611.63
2022-10-01T02:36:08.397Z,69631.78
2022-10-01T02:38:40.631Z,69652.81
2022-10-01T02:41:11.801Z,69637.63
2022-10-01T02:43:58.920Z,69617.78
2022-10-01T02:46:44.561Z,69627.44
2022-10-01T02:49:13.367Z,69571.94
2022-10-01T02:51:53.457Z,69607.00
2022-10-01T02:54:34.813Z,69590.03
2022-10-01T02:57:31.408Z,69576.59
2022-10-01T03:00:07.430Z,69615.19
2022-10-01T03:02:34.904Z,69609.94
2022-10-01T03:05:02.592Z,69599.75
2022-10-01T03:07:32.122Z,69581.63
2022-10-01T03:09:59.569Z,69622.84
2022-10-01T03:12:27.468Z,69610.00
2022-10-01T03:14:54.966Z,69585.78
2022-10-01T03:17:22.400Z,69557.13
2022-10-01T03:19:49.811Z,69592.47
2022-10-01T03:22:22.479Z,69602.09
2022-10-01T03:24:51.736Z,69612.31
2022-10-01T03:27:20.229Z,69602.09
2022-10-01T03:29:48.314Z,69596.84
2022-10-01T03:32:16.623Z,69587.81
2022-10-01T03:34:44.583Z,69543.44
2022-10-01T03:37:12.076Z,69596.59
2022-10-01T03:39:39.879Z,69561.28
2022-10-01T03:42:07.217Z,69572.66
2022-10-01T03:44:34.705Z,69562.31
2022-10-01T03:47:02.061Z,69580.19
2022-10-01T03:49:29.890Z,69614.94
2022-10-01T03:51:57.320Z,69587.50
2022-10-01T03:54:25.733Z,69582.84
2022-10-01T03:56:52.721Z,69589.00
2022-10-01T03:59:19.936Z,69548.47
2022-10-01T04:01:47.218Z,69575.31
2022-10-01T04:04:14.979Z,69591.34
2022-10-01T04:06:42.270Z,69603.00
2022-10-01T04:09:09.976Z,69610.59
2022-10-01T04:11:38.930Z,69571.72
2022-10-01T04:14:06.402Z,69591.34
2022-10-01T04:16:46.938Z,69580.28
2022-10-01T04:19:20.206Z,69570.63
2022-10-01T04:21:47.977Z,69588.16
2022-10-01T04:24:15.022Z,69593.09
2022-10-01T04:26:42.154Z,69552.28
2022-10-01T04:29:09.669Z,69553.44
2022-10-01T04:31:37.064Z,69568.91
2022-10-01T04:34:04.858Z,69574.41
2022-10-01T04:36:31.999Z,69557.22
2022-10-01T04:39:02.514Z,69562.75
2022-10-01T04:41:32.071Z,69580.81
2022-10-01T04:44:00.342Z,69590.78
2022-10-01T04:46:30.223Z,69619.94
2022-10-01T04:48:57.606Z,69583.50
2022-10-01T04:51:24.705Z,69589.88
2022-10-01T04:53:51.719Z,69579.69
2022-10-01T04:56:18.674Z,69605.94
2022-10-01T04:58:45.707Z,69610.59
2022-10-01T05:01:12.703Z,69574.94
2022-10-01T05:03:39.853Z,69576.44
2022-10-01T05:06:06.882Z,69607.63
2022-10-01T05:08:33.962Z,69591.84
2022-10-01T05:11:00.963Z,69627.47
2022-10-01T05:13:30.244Z,69592.75
2022-10-01T05:15:58.726Z,69609.47
2022-10-01T05:18:25.823Z,69600.38
2022-10-01T05:20:52.788Z,69620.19
2022-10-01T05:23:19.926Z,69599.50
2022-10-01T05:25:47.141Z,69640.59
2022-10-01T05:28:21.382Z,69620.41
2022-10-01T05:30:51.092Z,69626.50
2022-10-01T05:33:18.270Z,69638.44
2022-10-01T05:35:45.293Z,69652.44
2022-10-01T05:38:12.303Z,69635.75
2022-10-01T05:40:39.274Z,69648.00
2022-10-01T05:43:06.264Z,69665.53
2022-10-01T05:45:34.250Z,69673.09
2022-10-01T05:48:05.717Z,69657.88
2022-10-01T05:50:40.178Z,69682.69
2022-10-01T05:53:10.109Z,69682.06
2022-10-01T05:55:37.560Z,69689.34
2022-10-01T05:58:11.031Z,69724.41
2022-10-01T06:00:40.284Z,69728.19
2022-10-01T06:03:08.373Z,69722.56
2022-10-01T06:05:36.531Z,69777.53
2022-10-01T06:08:07.119Z,69740.34
2022-10-01T06:10:35.080Z,69722.75
2022-10-01T06:13:05.347Z,69737.38
2022-10-01T06:15:37.878Z,69779.72
2022-10-01T06:18:08.231Z,69764.75
2022-10-01T06:20:36.126Z,69782.28
2022-10-01T06:23:07.237Z,69788.94
2022-10-01T06:25:36.409Z,69819.03
2022-10-01T06:28:05.892Z,69837.72
2022-10-01T06:30:36.839Z,69843.56
2022-10-01T06:33:16.455Z,69810.47
2022-10-01T06:35:47.204Z,69851.66
2022-10-01T06:38:17.006Z,69905.50
2022-10-01T06:40:44.661Z,69855.94
2022-10-01T06:43:12.120Z,69897.75
2022-10-01T06:45:42.657Z,69891.84
2022-10-01T06:48:14.639Z,69916.41
2022-10-01T06:50:44.219Z,69943.03
2022-10-01T06:53:13.113Z,69926.56
2022-10-01T06:55:41.269Z,69935.63
2022-10-01T06:58:21.500Z,69950.84
2022-10-01T07:00:49.985Z,69951.94
2022-10-01T07:03:22.335Z,69970.66
2022-10-01T07:05:50.582Z,69957.69
2022-10-01T07:08:18.536Z,69975.28
2022-10-01T07:10:46.023Z,70009.84
2022-10-01T07:13:20.884Z,70014.22
2022-10-01T07:15:48.358Z,70028.25
2022-10-01T07:18:16.870Z,70035.56
2022-10-01T07:20:44.528Z,70054.91
2022-10-01T07:23:14.290Z,70032.56
2022-10-01T07:25:43.028Z,70026.09
2022-10-01T07:28:16.623Z,70037.25
2022-10-01T07:30:57.573Z,70064.81
2022-10-01T07:33:25.136Z,70081.50
2022-10-01T07:35:52.564Z,70089.66
2022-10-01T07:38:20.068Z,70084.63
2022-10-01T07:40:54.731Z,70124.53
2022-10-01T07:43:22.848Z,70094.56
2022-10-01T07:45:52.473Z,70070.44
2022-10-01T07:48:19.966Z,70119.72
2022-10-01T07:50:47.414Z,70134.44
2022-10-01T07:53:15.005Z,70099.09
2022-10-01T07:55:43.855Z,70131.41
2022-10-01T07:58:13.994Z,70153.09
2022-10-01T08:00:43.371Z,70170.06
2022-10-01T08:03:12.180Z,70153.78
2022-10-01T08:05:42.302Z,70219.88
2022-10-01T08:08:09.948Z,70249.75
2022-10-01T08:10:38.934Z,70290.22
2022-10-01T08:13:14.737Z,70259.53
2022-10-01T08:15:50.597Z,70291.47
2022-10-01T08:18:18.120Z,70276.34
2022-10-01T08:20:45.820Z,70329.53
2022-10-01T08:23:15.462Z,70315.66
2022-10-01T08:25:44.279Z,70325.09
2022-10-01T08:28:12.786Z,70320.69
2022-10-01T08:30:42.059Z,70294.44
2022-10-01T08:33:12.888Z,70312.75
2022-10-01T08:35:41.523Z,70323.94
2022-10-01T08:38:09.928Z,70364.88
2022-10-01T08:40:50.636Z,70345.66
2022-10-01T08:43:38.468Z,70312.97
2022-10-01T08:46:16.315Z,70299.97
2022-10-01T08:48:58.724Z,70333.56
2022-10-01T08:51:32.756Z,70367.41
2022-10-01T08:54:17.544Z,70375.03
2022-10-01T08:56:47.572Z,70400.47
2022-10-01T08:59:40.968Z,70400.88
2022-10-01T09:02:20.518Z,70401.34
2022-10-01T09:04:51.713Z,70421.03
2022-10-01T09:07:40.084Z,70414.13
2022-10-01T09:10:22.521Z,70424.72
2022-10-01T09:13:19.100Z,70473.53
2022-10-01T09:15:46.467Z,70516.56
2022-10-01T09:18:46.969Z,70462.31
2022-10-01T09:21:36.418Z,70503.56
2022-10-01T09:24:14.917Z,70454.41
2022-10-01T09:26:48.702Z,70439.47
2022-10-01T09:29:27.787Z,70438.97
2022-10-01T09:31:57.211Z,70425.38
2022-10-01T09:34:37.319Z,70414.75
2022-10-01T09:37:14.836Z,70417.75
2022-10-01T09:40:04.935Z,70407.75
2022-10-01T09:42:32.662Z,70419.53
2022-10-01T09:45:00.221Z,70468.47
2022-10-01T09:47:28.182Z,70428.97
2022-10-01T09:49:58.607Z,70420.16
2022-10-01T09:52:37.156Z,70428.09
2022-10-01T09:55:25.151Z,70412.47
2022-10-01T09:58:17.681Z,70442.56
2022-10-01T10:00:48.271Z,70404.00
2022-10-01T10:03:28.829Z,70395.41
2022-10-01T10:05:57.636Z,70392.44
2022-10-01T10:08:25.000Z,70390.09
2022-10-01T10:11:02.379Z,70386.25
2022-10-01T10:13:39.187Z,70424.88
2022-10-01T10:16:21.993Z,70389.22
2022-10-01T10:18:54.023Z,70434.59
2022-10-01T10:21:45.728Z,70426.00
2022-10-01T10:24:32.498Z,70416.63
2022-10-01T10:27:01.876Z,70417.41
2022-10-01T10:29:35.601Z,70448.78
2022-10-01T10:32:32.935Z,70512.94
2022-10-01T10:35:05.786Z,70523.66
2022-10-01T10:37:45.028Z,70492.16
2022-10-01T10:40:39.938Z,70510.47
2022-10-01T10:43:16.329Z,70494.94
2022-10-01T10:45:46.668Z,70457.59
2022-10-01T10:48:18.809Z,70469.31
2022-10-01T10:50:47.386Z,70431.09
2022-10-01T10:53:22.154Z,70425.88
2022-10-01T10:56:00.196Z,70423.00
2022-10-01T10:58:30.596Z,70382.06
2022-10-01T11:01:01.131Z,70394.34
2022-10-01T11:03:32.422Z,70392.09
2022-10-01T11:06:14.834Z,70369.47
2022-10-01T11:08:43.597Z,70307.25
2022-10-01T11:11:41.906Z,70282.28
2022-10-01T11:14:18.075Z,70272.06
2022-10-01T11:17:12.894Z,70266.53
2022-10-01T11:19:43.099Z,70228.72
2022-10-01T11:22:15.631Z,70223.81
2022-10-01T11:25:19.854Z,70247.34
2022-10-01T11:28:28.829Z,70257.16
2022-10-01T11:31:22.689Z,70205.44
2022-10-01T11:34:08.800Z,70194.28
2022-10-01T11:37:01.182Z,70228.44
2022-10-01T11:39:31.543Z,70201.34
2022-10-01T11:42:16.869Z,70205.19
2022-10-01T11:44:51.077Z,70236.97
2022-10-01T11:47:23.249Z,70187.31
2022-10-01T11:50:05.476Z,70191.09
2022-10-01T11:52:46.190Z,70211.63
2022-10-01T11:55:34.821Z,70224.91
2022-10-01T11:58:42.218Z,70214.06
2022-10-01T12:01:25.510Z,70228.13
2022-10-01T12:03:52.884Z,70252.22
2022-10-01T12:06:49.450Z,70192.06
2022-10-01T12:09:39.274Z,70213.53
2022-10-01T12:12:17.243Z,70203.00
2022-10-01T12:15:01.647Z,70162.78
2022-10-01T12:17:43.381Z,70159.69
2022-10-01T12:20:41.307Z,70161.44
2022-10-01T12:23:17.875Z,70187.88
2022-10-01T12:26:01.948Z,70186.13
2022-10-01T12:28:57.925Z,70151.75
2022-10-01T12:31:41.930Z,70173.56
2022-10-01T12:34:28.070Z,70168.25
2022-10-01T12:37:23.319Z,70188.53
2022-10-01T12:40:32.168Z,70155.13
2022-10-01T12:43:24.840Z,70198.56
2022-10-01T12:45:59.193Z,70199.72
2022-10-01T12:48:41.262Z,70191.81
2022-10-01T12:51:44.243Z,70209.44
2022-10-01T12:54:46.930Z,70252.50
2022-10-01T12:57:46.684Z,70231.66
2022-10-01T13:00:21.822Z,70160.91
2022-10-01T13:03:10.740Z,70171.75
2022-10-01T13:06:02.838Z,70202.56
2022-10-01T13:08:59.263Z,70223.38
2022-10-01T13:11:59.421Z,70266.88
2022-10-01T13:14:27.259Z,70238.06
2022-10-01T13:17:12.127Z,70248.94
2022-10-01T13:20:15.758Z,70270.66
2022-10-01T13:22:50.856Z,70260.06
2022-10-01T13:25:24.503Z,70257.44
2022-10-01T13:28:36.124Z,70218.97
2022-10-01T13:31:14.663Z,70258.41
2022-10-01T13:33:53.129Z,70284.53
2022-10-01T13:36:33.281Z,70243.94
2022-10-01T13:39:01.000Z,70268.31
2022-10-01T13:41:34.434Z,70259.56
2022-10-01T13:44:22.829Z,70278.69
2022-10-01T13:47:03.117Z,70261.34
2022-10-01T13:49:32.108Z,70256.94
2022-10-01T13:52:02.177Z,70209.59
2022-10-01T13:54:43.605Z,70247.50
2022-10-01T13:57:23.849Z,70251.59
2022-10-01T14:00:12.387Z,70265.94
2022-10-01T14:02:45.275Z,70279.19
2022-10-01T14:05:42.034Z,70265.41
2022-10-01T14:08:29.226Z,70256.56
2022-10-01T14:11:21.575Z,70265.09
2022-10-01T14:14:10.293Z,70256.53
2022-10-01T14:16:46.968Z,70275.91
2022-10-01T14:19:23.742Z,70275.59
2022-10-01T14:22:06.312Z,70274.13
2022-10-01T14:24:40.824Z,70257.09
2022-10-01T14:27:33.396Z,70275.66
2022-10-01T14:30:07.044Z,70241.59
2022-10-01T14:32:43.151Z,70217.25
2022-10-01T14:35:43.125Z,70230.06
2022-10-01T14:38:21.754Z,70281.75
2022-10-01T14:40:51.705Z,70305.81
2022-10-01T14:43:27.313Z,70278.69
2022-10-01T14:45:54.626Z,70295.66
2022-10-01T14:48:22.993Z,70338.56
2022-10-01T14:50:56.031Z,70297.41
2022-10-01T14:53:25.941Z,70308.31
2022-10-01T14:56:05.653Z,70263.03
2022-10-01T14:58:44.349Z,70266.91
2022-10-01T15:01:22.978Z,70252.38
2022-10-01T15:03:52.189Z,70266.81
2022-10-01T15:06:22.721Z,70248.63
2022-10-01T15:08:52.938Z,70303.19
2022-10-01T15:11:31.759Z,70267.16
2022-10-01T15:14:10.470Z,70290.94
2022-10-01T15:16:38.617Z,70291.47
2022-10-01T15:19:23.866Z,70320.13
2022-10-01T15:21:57.804Z,70331.44
2022-10-01T15:24:25.971Z,70368.81
2022-10-01T15:26:54.512Z,70419.47
2022-10-01T15:29:22.933Z,70310.25
2022-10-01T15:31:53.146Z,70356.41
2022-10-01T15:34:23.924Z,70323.06
2022-10-01T15:36:52.422Z,70401.63
2022-10-01T15:39:40.667Z,70360.66
2022-10-01T15:42:33.049Z,70350.66
2022-10-01T15:45:09.271Z,70347.03
2022-10-01T15:47:50.197Z,70389.22
2022-10-01T15:50:27.253Z,70378.59
2022-10-01T15:53:08.403Z,70429.91
2022-10-01T15:55:54.293Z,70367.31
2022-10-01T15:58:38.912Z,70349.63
2022-10-01T16:01:11.053Z,70381.66
2022-10-01T16:04:07.202Z,70362.44
2022-10-01T16:06:49.210Z,70383.91
2022-10-01T16:09:25.451Z,70379.84
2022-10-01T16:11:59.570Z,70345.66
2022-10-01T16:14:43.932Z,70357.50
2022-10-01T16:17:17.212Z,70372.88
2022-10-01T16:20:16.435Z,70329.00
2022-10-01T16:22:43.799Z,70315.78
2022-10-01T16:25:22.824Z,70365.25
2022-10-01T16:28:42.355Z,70306.72
2022-10-01T16:31:09.472Z,70318.25
2022-10-01T16:33:36.437Z,70306.47
2022-10-01T16:36:11.064Z,70327.09
2022-10-01T16:38:38.091Z,70292.69
2022-10-01T16:41:05.373Z,70310.63
2022-10-01T16:43:33.102Z,70303.28
2022-10-01T16:46:00.231Z,70332.19
2022-10-01T16:48:28.199Z,70300.41
2022-10-01T16:50:58.942Z,70286.06
2022-10-01T16:53:27.313Z,70259.53
2022-10-01T16:55:56.233Z,70300.19
2022-10-01T16:58:23.539Z,70309.25
2022-10-01T17:00:51.413Z,70311.00
2022-10-01T17:03:22.326Z,70290.72
2022-10-01T17:05:49.947Z,70256.59
2022-10-01T17:08:17.141Z,70280.72
2022-10-01T17:10:48.098Z,70273.34
2022-10-01T17:13:16.237Z,70276.66
2022-10-01T17:15:43.932Z,70286.03
2022-10-01T17:18:11.213Z,70274.75
2022-10-01T17:20:38.213Z,70326.50
2022-10-01T17:23:06.143Z,70298.56
2022-10-01T17:25:38.226Z,70280.31
2022-10-01T17:28:09.188Z,70320.59
2022-10-01T17:30:41.288Z,70316.50
2022-10-01T17:33:11.604Z,70298.56
2022-10-01T17:35:44.733Z,70323.44
2022-10-01T17:38:12.829Z,70353.47
2022-10-01T17:40:41.805Z,70361.13
2022-10-01T17:43:14.625Z,70365.25
2022-10-01T17:45:42.552Z,70346.38
2022-10-01T17:48:10.082Z,70326.03
2022-10-01T17:50:44.625Z,70342.88
2022-10-01T17:53:12.895Z,70342.88
2022-10-01T17:55:42.288Z,70403.22
2022-10-01T17:58:10.279Z,70360.22
2022-10-01T18:00:40.685Z,70356.38
2022-10-01T18:03:07.810Z,70375.50
2022-10-01T18:05:34.920Z,70364.59
2022-10-01T18:08:02.504Z,70366.03
2022-10-01T18:10:30.750Z,70353.06
2022-10-01T18:12:57.702Z,70353.34
2022-10-01T18:15:24.874Z,70374.19
2022-10-01T18:18:42.732Z,70381.03
2022-10-01T18:20:40.364Z,70368.00
2022-10-01T18:23:07.460Z,70405.72
2022-10-01T18:25:34.600Z,70354.41
2022-10-01T18:28:01.736Z,70404.47
2022-10-01T18:30:28.862Z,70383.28
2022-10-01T18:32:57.314Z,70382.03
2022-10-01T18:35:34.815Z,70431.84
2022-10-01T18:38:29.812Z,70395.63
2022-10-01T18:41:08.382Z,70380.00
2022-10-01T18:43:38.667Z,70392.16
2022-10-01T18:46:51.946Z,70415.41
2022-10-01T18:49:54.010Z,70392.72
2022-10-01T18:53:01.666Z,70393.94
2022-10-01T18:56:02.370Z,70374.56
2022-10-01T18:59:07.859Z,70395.09
2022-10-01T19:02:05.042Z,70366.19
2022-10-01T19:04:44.500Z,70365.97
2022-10-01T19:07:23.410Z,70368.59
2022-10-01T19:10:02.821Z,70399.81
2022-10-01T19:12:51.561Z,70416.31
2022-10-01T19:15:55.168Z,70381.50
2022-10-01T19:18:37.070Z,70368.25
2022-10-01T19:21:04.010Z,70400.09
2022-10-01T19:24:08.550Z,70431.00
2022-10-01T19:26:40.016Z,70400.63
2022-10-01T19:29:38.815Z,70411.47
2022-10-01T19:32:18.107Z,70428.00
2022-10-01T19:34:56.635Z,70400.63
2022-10-01T19:37:51.402Z,70374.13
2022-10-01T19:40:43.015Z,70432.19
2022-10-01T19:43:22.760Z,70351.75
2022-10-01T19:46:04.715Z,70399.50
2022-10-01T19:49:23.468Z,70364.44
2022-10-01T19:52:01.230Z,70365.94
2022-10-01T19:54:36.328Z,70418.66
2022-10-01T19:57:30.554Z,70388.97
2022-10-01T20:00:12.142Z,70414.91
2022-10-01T20:03:09.613Z,70380.47
2022-10-01T20:06:02.008Z,70379.59
2022-10-01T20:08:46.163Z,70345.78
2022-10-01T20:11:24.798Z,70354.59
2022-10-01T20:13:51.741Z,70339.59
2022-10-01T20:16:41.417Z,70360.50
2022-10-01T20:19:24.125Z,70318.06
2022-10-01T20:22:06.218Z,70403.53
2022-10-01T20:25:07.015Z,70361.44
2022-10-01T20:28:03.296Z,70341.72
2022-10-01T20:30:44.800Z,70362.06
2022-10-01T20:33:32.220Z,70359.47
2022-10-01T20:36:10.503Z,70351.16
2022-10-01T20:38:48.555Z,70367.66
2022-10-01T20:41:24.660Z,70357.03
2022-10-01T20:44:02.100Z,70361.16
2022-10-01T20:46:44.365Z,70337.63
2022-10-01T20:49:23.351Z,70317.59
2022-10-01T20:52:28.729Z,70275.84
2022-10-01T20:55:28.714Z,70321.78
2022-10-01T20:58:13.673Z,70325.31
2022-10-01T21:00:45.838Z,70319.53
2022-10-01T21:03:36.145Z,70340.06
2022-10-01T21:06:26.609Z,70335.38
2022-10-01T21:09:02.102Z,70311.84
2022-10-01T21:11:45.336Z,70320.38
2022-10-01T21:14:44.366Z,70286.28
2022-10-01T21:18:04.708Z,70288.91
2022-10-01T21:20:43.416Z,70287.72
2022-10-01T21:23:19.291Z,70324.59
2022-10-01T21:26:25.416Z,70307.78
2022-10-01T21:29:24.325Z,70302.44
2022-10-01T21:32:18.157Z,70298.06
2022-10-01T21:35:21.489Z,70298.94
2022-10-01T21:38:08.118Z,70290.75
2022-10-01T21:41:41.787Z,70313.13
2022-10-01T21:44:47.968Z,70289.59
2022-10-01T21:47:30.083Z,70299.00
2022-10-01T21:50:12.063Z,70278.38
2022-10-01T21:53:07.389Z,70312.81
2022-10-01T21:55:34.347Z,70313.41
2022-10-01T21:58:49.725Z,70306.59
2022-10-01T22:01:42.832Z,70287.19
2022-10-01T22:04:18.035Z,70321.28
2022-10-01T22:07:02.298Z,70294.25
2022-10-01T22:09:40.395Z,70302.19
2022-10-01T22:12:07.935Z,70320.69
2022-10-01T22:14:35.520Z,70307.13
2022-10-01T22:17:14.682Z,70313.06
2022-10-01T22:19:49.986Z,70299.81
2022-10-01T22:22:23.970Z,70313.06
2022-10-01T22:24:54.168Z,70315.69
2022-10-01T22:27:47.547Z,70287.91
2022-10-01T22:30:19.222Z,70310.75
2022-10-01T22:33:10.482Z,70281.97
2022-10-01T22:35:46.399Z,70291.25
2022-10-01T22:38:25.587Z,70294.50
2022-10-01T22:41:10.961Z,70280.09
2022-10-01T22:43:40.451Z,70319.59
2022-10-01T22:46:43.411Z,70321.38
2022-10-01T22:49:49.942Z,70301.91
2022-10-01T22:52:39.185Z,70277.53
2022-10-01T22:55:08.944Z,70339.06
2022-10-01T22:58:18.155Z,70296.97
2022-10-01T23:01:14.964Z,70295.53
2022-10-01T23:04:12.202Z,70255.56
2022-10-01T23:07:04.371Z,70280.88
2022-10-01T23:09:58.991Z,70268.50
2022-10-01T23:12:37.458Z,70277.03
2022-10-01T23:15:19.087Z,70264.94
2022-10-01T23:18:08.924Z,70295.56
2022-10-01T23:21:28.475Z,70266.09
2022-10-01T23:24:28.106Z,70288.16
2022-10-01T23:27:31.848Z,70286.13
2022-10-01T23:30:14.319Z,70297.09
2022-10-01T23:33:05.595Z,70241.19
2022-10-01T23:36:03.631Z,70281.50
2022-10-01T23:38:56.160Z,70266.81
2022-10-01T23:41:39.202Z,70241.88
2022-10-01T23:44:52.024Z,70214.78
2022-10-01T23:47:38.488Z,70251.00
2022-10-01T23:50:13.202Z,70243.09
2022-10-01T23:53:15.848Z,70218.97
2022-10-01T23:56:32.323Z,70223.72
2022-10-01T23:59:40.343Z,70204.03
